Elsmere, Delaware
Current Conditions -  °F | °C
As of 3:51 AM on Sunday 26 Oct 2014 (Local Time) from KILG Reporting Station
Broken Clouds Broken Clouds  
Wind Chill: 59°   Ceiling: 8000
Heat Index: 59°   Visibility: 10mi
Dew Point: 48°   Wind: 8mph
Humidity: 67%   Direction: 250°WSW
Pressure: 29.63"   Gusts: NA
Location:  39.7454°N, 75.5936°W
Report Text: KILG 260751Z 25007KT 10SM SCT065 BKN080 15/09 A2963 RMK AO2 SLP033 T01500089
Loading
Personal Weather Stations






























Interactive Weather Map
Tropical Storm Tracking
New forecast layout! Learn more

10-Day Weather Forecast

Advertisements
Track Severe Weather on mobile